createdAt,value
2023-04-24T00:00:07.671Z,8.70
2023-04-24T00:02:35.985Z,8.03
2023-04-24T00:05:04.768Z,8.10
2023-04-24T00:07:32.936Z,7.93
2023-04-24T00:10:01.125Z,8.03
2023-04-24T00:12:29.625Z,8.17
2023-04-24T00:14:59.250Z,7.83
2023-04-24T00:17:27.415Z,8.13
2023-04-24T00:19:59.506Z,7.93
2023-04-24T00:22:28.408Z,8.23
2023-04-24T00:24:56.562Z,7.87
2023-04-24T00:27:24.908Z,8.30
2023-04-24T00:29:52.959Z,7.80
2023-04-24T00:32:22.405Z,8.13
2023-04-24T00:34:50.838Z,8.60
2023-04-24T00:37:19.045Z,7.93
2023-04-24T00:39:47.317Z,8.40
2023-04-24T00:42:15.404Z,8.27
2023-04-24T00:44:43.587Z,8.80
2023-04-24T00:47:13.297Z,7.93
2023-04-24T00:49:43.150Z,8.70
2023-04-24T00:52:11.880Z,8.40
2023-04-24T00:54:39.947Z,8.27
2023-04-24T00:57:08.336Z,8.57
2023-04-24T00:59:37.690Z,8.33
2023-04-24T01:02:06.855Z,7.90
2023-04-24T01:04:35.337Z,8.00
2023-04-24T01:07:05.829Z,7.40
2023-04-24T01:09:33.945Z,8.13
2023-04-24T01:12:02.713Z,8.63
2023-04-24T01:14:31.593Z,9.27
2023-04-24T01:17:01.575Z,7.97
2023-04-24T01:19:29.823Z,8.60
2023-04-24T01:22:01.639Z,8.40
2023-04-24T01:24:31.344Z,9.83
2023-04-24T01:26:59.595Z,8.63
2023-04-24T01:29:27.714Z,9.50
2023-04-24T01:31:58.790Z,10.80
2023-04-24T01:34:27.519Z,10.77
2023-04-24T01:36:57.138Z,10.33
2023-04-24T01:39:26.782Z,11.03
2023-04-24T01:41:56.572Z,10.87
2023-04-24T01:44:25.259Z,11.97
2023-04-24T01:46:55.201Z,10.83
2023-04-24T01:49:23.563Z,10.73
2023-04-24T01:51:51.706Z,12.07
2023-04-24T01:54:20.643Z,11.37
2023-04-24T01:56:49.301Z,12.20
2023-04-24T01:59:19.592Z,11.70
2023-04-24T02:01:47.672Z,12.43
2023-04-24T02:04:16.586Z,11.47
2023-04-24T02:06:44.748Z,12.33
2023-04-24T02:09:13.077Z,11.70
2023-04-24T02:11:41.249Z,12.00
2023-04-24T02:14:09.451Z,12.03
2023-04-24T02:16:39.056Z,11.47
2023-04-24T02:19:07.220Z,11.70
2023-04-24T02:21:35.626Z,11.40
2023-04-24T02:24:05.565Z,11.10
2023-04-24T02:26:34.139Z,11.67
2023-04-24T02:29:02.741Z,11.27
2023-04-24T02:31:30.984Z,11.93
2023-04-24T02:34:00.592Z,11.40
2023-04-24T02:36:28.684Z,11.87
2023-04-24T02:38:56.807Z,11.00
2023-04-24T02:41:24.873Z,12.20
2023-04-24T02:43:52.969Z,12.30
2023-04-24T02:46:21.062Z,11.97
2023-04-24T02:48:49.216Z,11.13
2023-04-24T02:51:18.649Z,11.03
2023-04-24T02:53:46.889Z,11.77
2023-04-24T02:56:14.969Z,12.00
2023-04-24T02:58:43.345Z,11.97
2023-04-24T03:01:11.769Z,12.47
2023-04-24T03:03:40.699Z,12.40
2023-04-24T03:06:09.097Z,12.43
2023-04-24T03:08:38.982Z,11.93
2023-04-24T03:11:07.097Z,12.17
2023-04-24T03:13:35.239Z,11.33
2023-04-24T03:16:03.492Z,12.23
2023-04-24T03:18:31.604Z,13.10
2023-04-24T03:21:03.094Z,10.83
2023-04-24T03:23:34.041Z,11.30
2023-04-24T03:26:04.031Z,11.80
2023-04-24T03:28:32.289Z,13.53
2023-04-24T03:31:01.267Z,13.43
2023-04-24T03:33:29.662Z,13.03
2023-04-24T03:35:58.209Z,13.40
2023-04-24T03:38:26.427Z,13.37
2023-04-24T03:40:54.586Z,13.90
2023-04-24T03:43:24.690Z,14.33
2023-04-24T03:45:53.189Z,14.90
2023-04-24T03:48:21.389Z,14.47
2023-04-24T03:50:50.704Z,13.90
2023-04-24T03:53:18.830Z,14.80
2023-04-24T03:55:47.030Z,14.20
2023-04-24T03:58:15.594Z,15.50
2023-04-24T04:00:45.636Z,15.07
2023-04-24T04:03:14.518Z,14.17
2023-04-24T04:05:42.975Z,14.87
2023-04-24T04:08:11.149Z,13.17
2023-04-24T04:10:39.348Z,13.87
2023-04-24T04:13:08.145Z,14.43
2023-04-24T04:15:36.779Z,14.13
2023-04-24T04:18:06.728Z,13.90
2023-04-24T04:20:35.075Z,13.93
2023-04-24T04:23:03.267Z,14.43
2023-04-24T04:25:31.282Z,13.13
2023-04-24T04:28:00.710Z,13.27
2023-04-24T04:30:30.537Z,12.13
2023-04-24T04:32:58.588Z,12.50
2023-04-24T04:35:28.409Z,12.63
2023-04-24T04:37:57.194Z,12.70
2023-04-24T04:40:25.440Z,12.00
2023-04-24T04:42:54.244Z,12.40
2023-04-24T04:45:22.841Z,13.30
2023-04-24T04:48:08.991Z,12.23
2023-04-24T04:50:38.571Z,11.80
2023-04-24T04:53:06.816Z,11.70
2023-04-24T04:55:35.020Z,11.87
2023-04-24T04:58:03.219Z,12.67
2023-04-24T05:00:36.568Z,12.60
2023-04-24T05:03:19.381Z,12.70
2023-04-24T05:05:50.599Z,11.97
2023-04-24T05:08:26.414Z,12.40
2023-04-24T05:10:56.515Z,12.67
2023-04-24T05:13:38.202Z,11.83
2023-04-24T05:16:07.125Z,12.47
2023-04-24T05:18:35.419Z,11.90
2023-04-24T05:21:05.506Z,12.63
2023-04-24T05:23:33.677Z,11.80
2023-04-24T05:26:01.998Z,12.83
2023-04-24T05:28:30.148Z,18.87
2023-04-24T05:30:58.395Z,12.37
2023-04-24T05:33:26.589Z,12.20
2023-04-24T05:35:55.988Z,11.30
2023-04-24T05:38:25.776Z,11.30
2023-04-24T05:40:53.913Z,11.33
2023-04-24T05:43:22.079Z,10.73
2023-04-24T05:45:50.657Z,11.70
2023-04-24T05:48:18.865Z,10.73
2023-04-24T05:50:49.151Z,10.87
2023-04-24T05:53:17.784Z,9.23
2023-04-24T05:55:47.821Z,10.33
2023-04-24T05:58:16.815Z,10.60
2023-04-24T06:00:47.387Z,12.40
2023-04-24T06:03:15.714Z,11.13
2023-04-24T06:05:44.135Z,11.23
2023-04-24T06:08:12.609Z,11.27
2023-04-24T06:10:41.373Z,10.70
2023-04-24T06:13:10.909Z,10.07
2023-04-24T06:15:39.459Z,11.77
2023-04-24T06:18:07.539Z,10.07
2023-04-24T06:20:35.580Z,11.63
2023-04-24T06:23:03.845Z,9.97
2023-04-24T06:25:32.180Z,10.10
2023-04-24T06:28:00.474Z,10.17
2023-04-24T06:30:30.142Z,9.67
2023-04-24T06:33:03.074Z,9.57
2023-04-24T06:35:39.233Z,11.23
2023-04-24T06:38:07.797Z,9.90
2023-04-24T06:40:36.142Z,10.17
2023-04-24T06:43:04.260Z,9.70
2023-04-24T06:45:33.761Z,9.03
2023-04-24T06:48:02.067Z,10.43
2023-04-24T06:50:30.254Z,9.50
2023-04-24T06:52:58.525Z,9.70
2023-04-24T06:55:26.631Z,8.97
2023-04-24T06:57:55.165Z,9.57
2023-04-24T07:00:25.409Z,9.07
2023-04-24T07:02:55.229Z,9.80
2023-04-24T07:05:24.490Z,10.13
2023-04-24T07:07:53.574Z,9.13
2023-04-24T07:10:22.342Z,13.20
2023-04-24T07:12:50.710Z,10.17
2023-04-24T07:15:19.091Z,10.47
2023-04-24T07:17:47.269Z,9.07
2023-04-24T07:20:24.465Z,9.67
2023-04-24T07:22:55.030Z,9.13
2023-04-24T07:25:23.376Z,9.30
2023-04-24T07:27:51.639Z,8.73
2023-04-24T07:30:19.859Z,8.53
2023-04-24T07:32:48.050Z,8.53
2023-04-24T07:35:17.755Z,8.68
2023-04-24T07:37:47.050Z,7.97
2023-04-24T07:40:15.352Z,7.72
2023-04-24T07:42:44.980Z,7.70
2023-04-24T07:45:13.238Z,8.20
2023-04-24T07:47:41.594Z,8.55
2023-04-24T07:50:10.641Z,9.75
2023-04-24T07:52:40.363Z,9.90
2023-04-24T07:55:09.557Z,8.68
2023-04-24T07:57:38.357Z,8.70
2023-04-24T08:00:07.980Z,10.95
2023-04-24T08:02:36.450Z,9.65
2023-04-24T08:05:05.397Z,10.57
2023-04-24T08:07:33.854Z,10.20
2023-04-24T08:10:03.524Z,9.18
2023-04-24T08:12:32.137Z,10.30
2023-04-24T08:15:00.554Z,16.02
2023-04-24T08:17:28.623Z,9.40
2023-04-24T08:20:02.697Z,8.82
2023-04-24T08:22:31.637Z,10.77
2023-04-24T08:25:02.021Z,10.18
2023-04-24T08:27:31.514Z,9.23
2023-04-24T08:30:00.116Z,8.85
2023-04-24T08:32:30.241Z,12.98
2023-04-24T08:35:00.286Z,10.48
2023-04-24T08:37:29.435Z,9.05
2023-04-24T08:39:57.565Z,9.02
2023-04-24T08:42:26.181Z,8.90
2023-04-24T08:44:57.839Z,9.32
2023-04-24T08:47:28.482Z,9.43
2023-04-24T08:49:56.818Z,8.43
2023-04-24T08:52:25.486Z,9.30
2023-04-24T08:54:55.730Z,8.65
2023-04-24T08:57:24.562Z,8.98
2023-04-24T08:59:53.469Z,9.73
2023-04-24T09:02:23.667Z,8.38
2023-04-24T09:04:54.769Z,8.27
2023-04-24T09:07:27.128Z,8.02
2023-04-24T09:09:56.794Z,7.95
2023-04-24T09:12:24.957Z,8.25
2023-04-24T09:14:55.128Z,7.95
2023-04-24T09:17:28.094Z,8.30
2023-04-24T09:19:56.437Z,8.40
2023-04-24T09:22:24.766Z,8.27
2023-04-24T09:25:04.126Z,8.20
2023-04-24T09:27:33.200Z,8.32
2023-04-24T09:30:02.099Z,8.40
2023-04-24T09:32:32.977Z,7.53
2023-04-24T09:35:13.444Z,7.90
2023-04-24T09:37:43.675Z,7.55
2023-04-24T09:40:14.453Z,7.10
2023-04-24T09:42:45.458Z,7.03
2023-04-24T09:45:15.402Z,7.15
2023-04-24T09:47:47.307Z,7.13
2023-04-24T09:50:17.868Z,7.00
2023-04-24T09:52:57.873Z,7.38
2023-04-24T09:55:26.593Z,7.57
2023-04-24T09:57:55.957Z,7.22
2023-04-24T10:00:25.987Z,8.02
2023-04-24T10:02:59.201Z,7.75
2023-04-24T10:05:30.548Z,7.95
2023-04-24T10:07:59.671Z,7.45
2023-04-24T10:10:28.818Z,8.32
2023-04-24T10:12:57.609Z,8.95
2023-04-24T10:15:26.561Z,8.73
2023-04-24T10:17:57.456Z,7.30
2023-04-24T10:20:30.229Z,7.55
2023-04-24T10:22:59.369Z,8.43
2023-04-24T10:25:29.276Z,9.20
2023-04-24T10:28:00.666Z,6.78
2023-04-24T10:30:30.205Z,7.50
2023-04-24T10:32:58.778Z,7.38
2023-04-24T10:35:28.545Z,7.43
2023-04-24T10:38:01.051Z,7.80
2023-04-24T10:40:32.499Z,7.57
2023-04-24T10:43:00.917Z,7.47
2023-04-24T10:45:29.131Z,6.63
2023-04-24T10:48:04.308Z,7.45
2023-04-24T10:50:47.510Z,7.22
2023-04-24T10:53:18.557Z,7.68
2023-04-24T10:55:49.269Z,8.23
2023-04-24T10:58:18.786Z,8.82
2023-04-24T11:00:58.704Z,7.32
2023-04-24T11:03:30.285Z,8.23
2023-04-24T11:06:02.364Z,7.20
2023-04-24T11:08:39.394Z,6.90
2023-04-24T11:11:12.385Z,6.75
2023-04-24T11:14:09.349Z,6.82
2023-04-24T11:16:41.978Z,6.82
2023-04-24T11:19:12.245Z,7.25
2023-04-24T11:21:46.120Z,6.53
2023-04-24T11:24:39.474Z,6.97
2023-04-24T11:27:10.181Z,7.65
2023-04-24T11:29:44.082Z,5.97
2023-04-24T11:32:26.823Z,6.18
2023-04-24T11:34:57.497Z,6.28
2023-04-24T11:37:29.621Z,8.38
2023-04-24T11:40:01.179Z,6.75
2023-04-24T11:42:31.318Z,6.18
2023-04-24T11:45:01.388Z,5.95
2023-04-24T11:47:35.088Z,9.90
2023-04-24T11:50:04.844Z,6.05
2023-04-24T11:52:35.913Z,6.32
2023-04-24T11:55:04.872Z,6.38
2023-04-24T11:57:35.493Z,5.70
2023-04-24T12:00:06.257Z,5.70
2023-04-24T12:02:36.926Z,6.50
2023-04-24T12:05:07.275Z,6.13
2023-04-24T12:07:44.294Z,6.25
2023-04-24T12:10:12.665Z,6.00
2023-04-24T12:12:41.039Z,5.40
2023-04-24T12:15:10.623Z,7.10
2023-04-24T12:17:43.318Z,6.00
2023-04-24T12:20:12.808Z,5.78
2023-04-24T12:22:49.717Z,6.28
2023-04-24T12:25:19.823Z,5.10
2023-04-24T12:27:48.777Z,5.88
2023-04-24T12:30:18.787Z,5.82
2023-04-24T12:32:49.147Z,6.50
2023-04-24T12:35:23.146Z,5.93
2023-04-24T12:37:52.817Z,5.80
2023-04-24T12:40:23.021Z,5.57
2023-04-24T12:42:52.638Z,6.35
2023-04-24T12:45:24.459Z,5.22
2023-04-24T12:47:52.678Z,5.65
2023-04-24T12:50:21.561Z,6.15
2023-04-24T12:52:50.548Z,5.65
2023-04-24T12:55:20.144Z,6.75
2023-04-24T12:57:48.541Z,5.60
2023-04-24T13:00:19.988Z,5.57
2023-04-24T13:02:48.614Z,5.00
2023-04-24T13:05:16.850Z,6.05
2023-04-24T13:07:45.128Z,6.20
2023-04-24T13:10:14.371Z,5.85
2023-04-24T13:12:46.477Z,5.00
2023-04-24T13:15:15.079Z,5.35
2023-04-24T13:17:43.392Z,5.28
2023-04-24T13:20:12.086Z,5.32
2023-04-24T13:22:40.328Z,5.38
2023-04-24T13:25:10.008Z,5.45
2023-04-24T13:27:40.626Z,4.90
2023-04-24T13:30:13.940Z,5.05
2023-04-24T13:32:42.361Z,6.15
2023-04-24T13:35:11.194Z,5.35
2023-04-24T13:37:39.889Z,4.93
2023-04-24T13:40:09.531Z,5.53
2023-04-24T13:42:37.831Z,5.82
2023-04-24T13:45:17.783Z,9.05
2023-04-24T13:47:59.055Z,5.03
2023-04-24T13:50:30.504Z,5.68
2023-04-24T13:53:02.619Z,4.80
2023-04-24T13:55:33.566Z,4.97
2023-04-24T13:58:02.464Z,4.85
2023-04-24T14:00:31.099Z,5.70
2023-04-24T14:03:00.941Z,4.68
2023-04-24T14:05:29.388Z,4.35
2023-04-24T14:07:57.734Z,4.57
2023-04-24T14:10:26.652Z,4.55
2023-04-24T14:12:54.912Z,4.60
2023-04-24T14:15:23.330Z,5.45
2023-04-24T14:17:52.193Z,4.78
2023-04-24T14:20:22.842Z,4.88
2023-04-24T14:22:51.412Z,5.20
2023-04-24T14:25:20.617Z,6.57
2023-04-24T14:27:49.417Z,5.38
2023-04-24T14:30:17.805Z,4.63
2023-04-24T14:32:48.312Z,4.50
2023-04-24T14:35:17.128Z,5.07
2023-04-24T14:37:49.454Z,4.90
2023-04-24T14:40:39.673Z,4.15
2023-04-24T14:43:06.399Z,4.50
2023-04-24T14:45:37.671Z,5.25
2023-04-24T14:48:06.531Z,4.30
2023-04-24T14:50:35.216Z,3.88
2023-04-24T14:53:05.248Z,4.32
2023-04-24T14:55:35.230Z,4.40
2023-04-24T14:58:03.457Z,4.80
2023-04-24T15:00:31.842Z,4.90
2023-04-24T15:03:01.236Z,4.95
2023-04-24T15:05:33.479Z,6.60
2023-04-24T15:08:09.521Z,4.95
2023-04-24T15:10:38.225Z,4.05
2023-04-24T15:13:06.965Z,3.80
2023-04-24T15:15:35.211Z,4.25
2023-04-24T15:18:03.885Z,4.00
2023-04-24T15:20:33.208Z,4.40
2023-04-24T15:23:04.031Z,4.30
2023-04-24T15:25:34.971Z,4.45
2023-04-24T15:28:05.997Z,3.90
2023-04-24T15:30:34.857Z,5.13
2023-04-24T15:33:06.829Z,4.35
2023-04-24T15:35:37.075Z,4.57
2023-04-24T15:38:05.751Z,4.13
2023-04-24T15:40:36.396Z,4.38
2023-04-24T15:43:04.667Z,4.45
2023-04-24T15:45:33.376Z,4.70
2023-04-24T15:48:03.134Z,4.45
2023-04-24T15:50:32.951Z,4.93
2023-04-24T15:53:01.598Z,5.00
2023-04-24T15:55:30.621Z,4.90
2023-04-24T15:58:00.322Z,4.70
2023-04-24T16:00:34.394Z,4.97
2023-04-24T16:03:03.230Z,4.72
2023-04-24T16:05:31.652Z,4.40
2023-04-24T16:08:00.260Z,5.57
2023-04-24T16:10:29.785Z,5.22
2023-04-24T16:13:01.196Z,4.25
2023-04-24T16:15:29.402Z,4.80
2023-04-24T16:17:58.587Z,4.40
2023-04-24T16:20:28.284Z,3.88
2023-04-24T16:22:56.542Z,4.18
2023-04-24T16:25:24.644Z,3.85
2023-04-24T16:27:52.891Z,3.42
2023-04-24T16:30:22.518Z,3.53
2023-04-24T16:32:51.041Z,4.45
2023-04-24T16:35:19.356Z,4.18
2023-04-24T16:37:47.631Z,4.93
2023-04-24T16:40:15.972Z,4.47
2023-04-24T16:42:44.085Z,5.07
2023-04-24T16:45:12.855Z,5.05
2023-04-24T16:47:42.785Z,6.05
2023-04-24T16:50:13.043Z,5.50
2023-04-24T16:52:41.258Z,4.10
2023-04-24T16:55:10.728Z,4.20
2023-04-24T16:57:38.889Z,4.15
2023-04-24T17:00:08.892Z,5.30
2023-04-24T17:02:37.538Z,6.07
2023-04-24T17:05:08.681Z,5.40
2023-04-24T17:07:37.081Z,5.18
2023-04-24T17:10:05.702Z,4.65
2023-04-24T17:12:34.607Z,6.20
2023-04-24T17:15:02.887Z,4.50
2023-04-24T17:17:31.025Z,5.03
2023-04-24T17:20:01.510Z,5.25
2023-04-24T17:22:33.070Z,5.22
2023-04-24T17:25:01.340Z,5.50
2023-04-24T17:27:30.849Z,5.68
2023-04-24T17:30:00.358Z,4.70
2023-04-24T17:32:28.818Z,4.88
2023-04-24T17:34:57.044Z,4.22
2023-04-24T17:37:25.475Z,6.35
2023-04-24T17:39:55.287Z,4.50
2023-04-24T17:42:23.409Z,5.25
2023-04-24T17:44:53.152Z,4.60
2023-04-24T17:47:22.887Z,4.55
2023-04-24T17:49:52.304Z,4.80
2023-04-24T17:52:20.453Z,4.85
2023-04-24T17:54:49.814Z,4.15
2023-04-24T17:57:19.761Z,4.95
2023-04-24T17:59:47.865Z,6.05
2023-04-24T18:02:16.577Z,5.65
2023-04-24T18:04:45.050Z,6.38
2023-04-24T18:07:13.302Z,5.75
2023-04-24T18:09:41.555Z,7.70
2023-04-24T18:12:27.028Z,7.88
2023-04-24T18:15:06.677Z,7.88
2023-04-24T18:17:41.869Z,10.82
2023-04-24T18:20:11.452Z,9.18
2023-04-24T18:22:41.004Z,9.15
2023-04-24T18:25:10.291Z,8.70
2023-04-24T18:27:39.066Z,7.78
2023-04-24T18:30:14.938Z,7.75
2023-04-24T18:32:43.952Z,6.85
2023-04-24T18:35:12.949Z,11.05
2023-04-24T18:37:41.846Z,9.48
2023-04-24T18:40:12.226Z,8.43
2023-04-24T18:42:41.061Z,7.97
2023-04-24T18:45:14.663Z,7.78
2023-04-24T18:47:44.003Z,6.50
2023-04-24T18:50:14.849Z,6.03
2023-04-24T18:52:43.575Z,6.57
2023-04-24T18:55:12.489Z,7.15
2023-04-24T18:57:40.756Z,6.88
2023-04-24T19:00:11.591Z,6.80
2023-04-24T19:02:40.758Z,6.72
2023-04-24T19:05:11.191Z,7.10
2023-04-24T19:07:41.093Z,6.25
2023-04-24T19:10:10.927Z,6.50
2023-04-24T19:12:39.745Z,7.22
2023-04-24T19:15:11.957Z,6.47
2023-04-24T19:17:42.773Z,5.78
2023-04-24T19:20:12.549Z,6.10
2023-04-24T19:22:41.250Z,5.70
2023-04-24T19:25:11.075Z,6.15
2023-04-24T19:27:39.744Z,5.85
2023-04-24T19:30:09.607Z,6.10
2023-04-24T19:32:38.288Z,6.97
2023-04-24T19:35:11.746Z,6.53
2023-04-24T19:37:42.105Z,6.70
2023-04-24T19:40:10.954Z,6.55
2023-04-24T19:42:43.819Z,6.72
2023-04-24T19:45:13.580Z,6.35
2023-04-24T19:47:42.536Z,7.10
2023-04-24T19:50:12.509Z,6.33
2023-04-24T19:52:40.910Z,7.30
2023-04-24T19:55:09.862Z,7.30
2023-04-24T19:57:38.226Z,6.85
2023-04-24T20:00:08.424Z,7.30
2023-04-24T20:02:37.125Z,7.53
2023-04-24T20:05:06.519Z,6.93
2023-04-24T20:07:36.465Z,7.67
2023-04-24T20:10:04.866Z,7.93
2023-04-24T20:12:33.088Z,8.47
2023-04-24T20:15:02.224Z,8.40
2023-04-24T20:17:30.628Z,7.70
2023-04-24T20:19:58.795Z,7.40
2023-04-24T20:22:26.951Z,8.00
2023-04-24T20:24:56.803Z,8.30
2023-04-24T20:27:25.054Z,8.17
2023-04-24T20:29:54.922Z,8.43
2023-04-24T20:32:24.674Z,7.80
2023-04-24T20:34:52.960Z,6.80
2023-04-24T20:37:21.300Z,7.57
2023-04-24T20:39:51.026Z,7.00
2023-04-24T20:42:20.831Z,7.43
2023-04-24T20:44:49.390Z,7.30
2023-04-24T20:47:17.519Z,6.93
2023-04-24T20:49:45.659Z,6.47
2023-04-24T20:52:13.913Z,7.82
2023-04-24T20:54:42.071Z,7.68
2023-04-24T20:57:10.491Z,7.68
2023-04-24T20:59:40.213Z,8.55
2023-04-24T21:02:08.954Z,8.75
2023-04-24T21:04:39.853Z,8.20
2023-04-24T21:07:09.396Z,7.53
2023-04-24T21:09:37.864Z,7.05
2023-04-24T21:12:06.409Z,7.20
2023-04-24T21:14:34.526Z,7.50
2023-04-24T21:17:04.299Z,7.25
2023-04-24T21:19:32.574Z,7.18
2023-04-24T21:22:00.794Z,7.07
2023-04-24T21:24:29.274Z,6.30
2023-04-24T21:26:57.490Z,7.20
2023-04-24T21:29:25.628Z,4.23
2023-04-24T21:31:54.309Z,3.07
2023-04-24T21:34:23.881Z,1.93
2023-04-24T21:36:52.070Z,1.63
2023-04-24T21:39:20.172Z,1.60
2023-04-24T21:41:48.680Z,1.67
2023-04-24T21:44:16.870Z,2.37
2023-04-24T21:46:45.273Z,1.40
2023-04-24T21:49:13.473Z,1.50
2023-04-24T21:51:43.074Z,1.63
2023-04-24T21:54:11.147Z,1.60
2023-04-24T21:56:41.532Z,1.60
2023-04-24T21:59:10.091Z,1.40
2023-04-24T22:01:38.611Z,1.27
2023-04-24T22:04:07.366Z,1.53
2023-04-24T22:06:35.587Z,1.20
2023-04-24T22:09:06.006Z,1.20
2023-04-24T22:11:34.175Z,1.30
2023-04-24T22:14:02.205Z,1.50
2023-04-24T22:16:31.254Z,1.60
2023-04-24T22:18:59.884Z,1.77
2023-04-24T22:21:29.123Z,1.60
2023-04-24T22:23:57.849Z,1.70
2023-04-24T22:26:27.339Z,2.23
2023-04-24T22:28:55.509Z,1.87
2023-04-24T22:31:23.770Z,1.77
2023-04-24T22:33:52.655Z,1.60
2023-04-24T22:36:21.534Z,1.87
2023-04-24T22:38:49.708Z,1.90
2023-04-24T22:41:18.049Z,2.03
2023-04-24T22:43:47.965Z,1.90
2023-04-24T22:46:16.327Z,1.83
2023-04-24T22:48:44.514Z,2.00
2023-04-24T22:51:12.724Z,2.13
2023-04-24T22:53:40.984Z,2.20
2023-04-24T22:56:09.233Z,2.40
2023-04-24T22:58:37.438Z,2.73
2023-04-24T23:01:07.151Z,2.70
2023-04-24T23:03:35.857Z,2.63
2023-04-24T23:06:04.432Z,2.67
2023-04-24T23:08:32.586Z,2.93
2023-04-24T23:11:02.006Z,2.83
2023-04-24T23:13:30.181Z,2.77
2023-04-24T23:15:58.504Z,2.93
2023-04-24T23:18:28.345Z,3.40
2023-04-24T23:20:56.510Z,3.00
2023-04-24T23:23:24.759Z,3.33
2023-04-24T23:25:52.755Z,3.20
2023-04-24T23:28:21.065Z,2.90
2023-04-24T23:30:49.227Z,3.63
2023-04-24T23:33:17.308Z,3.63
2023-04-24T23:35:46.947Z,3.33
2023-04-24T23:38:15.215Z,3.27
2023-04-24T23:40:43.566Z,3.53
2023-04-24T23:43:12.678Z,3.30
2023-04-24T23:45:40.852Z,3.30
2023-04-24T23:48:09.008Z,3.60
2023-04-24T23:50:37.216Z,3.60
2023-04-24T23:53:06.800Z,3.87
2023-04-24T23:55:34.952Z,3.60
2023-04-24T23:58:03.179Z,4.27
